sensor_id;sensor_type;location;lat;lon;timestamp;temperature;humidity
5962;DHT22;3007;50.770;0.250;2022-12-18T00:02:17;1.00;99.90
5962;DHT22;3007;50.770;0.250;2022-12-18T00:04:44;1.00;99.90
5962;DHT22;3007;50.770;0.250;2022-12-18T00:07:13;1.00;99.90
5962;DHT22;3007;50.770;0.250;2022-12-18T00:09:40;1.00;99.90
5962;DHT22;3007;50.770;0.250;2022-12-18T00:12:07;0.90;99.90
5962;DHT22;3007;50.770;0.250;2022-12-18T00:14:34;1.00;99.90
5962;DHT22;3007;50.770;0.250;2022-12-18T00:17:02;0.90;99.90
5962;DHT22;3007;50.770;0.250;2022-12-18T00:19:29;1.00;99.90
5962;DHT22;3007;50.770;0.250;2022-12-18T00:21:57;1.00;99.90
5962;DHT22;3007;50.770;0.250;2022-12-18T00:24:25;1.00;99.90
5962;DHT22;3007;50.770;0.250;2022-12-18T00:26:52;1.10;99.90
5962;DHT22;3007;50.770;0.250;2022-12-18T00:29:19;1.10;99.90
5962;DHT22;3007;50.770;0.250;2022-12-18T00:31:47;1.10;99.90
5962;DHT22;3007;50.770;0.250;2022-12-18T00:34:14;1.10;99.90
5962;DHT22;3007;50.770;0.250;2022-12-18T00:36:42;1.10;99.90
5962;DHT22;3007;50.770;0.250;2022-12-18T00:39:10;1.10;99.90
5962;DHT22;3007;50.770;0.250;2022-12-18T00:41:39;1.10;99.90
5962;DHT22;3007;50.770;0.250;2022-12-18T00:44:23;1.10;99.90
5962;DHT22;3007;50.770;0.250;2022-12-18T00:46:50;1.10;99.90
5962;DHT22;3007;50.770;0.250;2022-12-18T00:49:19;1.10;99.90
5962;DHT22;3007;50.770;0.250;2022-12-18T00:51:47;1.10;99.90
5962;DHT22;3007;50.770;0.250;2022-12-18T00:54:14;1.10;99.90
5962;DHT22;3007;50.770;0.250;2022-12-18T00:56:43;1.00;99.90
5962;DHT22;3007;50.770;0.250;2022-12-18T00:59:10;1.00;99.90
5962;DHT22;3007;50.770;0.250;2022-12-18T01:01:38;1.00;99.90
5962;DHT22;3007;50.770;0.250;2022-12-18T01:04:05;1.00;99.90
5962;DHT22;3007;50.770;0.250;2022-12-18T01:06:34;1.10;99.90
5962;DHT22;3007;50.770;0.250;2022-12-18T01:09:02;1.10;99.90
5962;DHT22;3007;50.770;0.250;2022-12-18T01:11:29;1.10;99.90
5962;DHT22;3007;50.770;0.250;2022-12-18T01:13:58;1.10;99.90
5962;DHT22;3007;50.770;0.250;2022-12-18T01:16:28;1.10;99.90
5962;DHT22;3007;50.770;0.250;2022-12-18T01:18:55;1.10;99.90
5962;DHT22;3007;50.770;0.250;2022-12-18T01:21:23;1.10;99.90
5962;DHT22;3007;50.770;0.250;2022-12-18T01:23:52;1.10;99.90
5962;DHT22;3007;50.770;0.250;2022-12-18T01:26:19;1.00;99.90
5962;DHT22;3007;50.770;0.250;2022-12-18T01:28:47;1.10;99.90
5962;DHT22;3007;50.770;0.250;2022-12-18T01:31:18;1.10;99.90
5962;DHT22;3007;50.770;0.250;2022-12-18T01:33:45;1.20;99.90
5962;DHT22;3007;50.770;0.250;2022-12-18T01:36:17;1.30;99.90
5962;DHT22;3007;50.770;0.250;2022-12-18T01:38:44;1.30;99.90
5962;DHT22;3007;50.770;0.250;2022-12-18T01:41:12;1.20;99.90
5962;DHT22;3007;50.770;0.250;2022-12-18T01:43:48;1.30;99.90
5962;DHT22;3007;50.770;0.250;2022-12-18T01:46:19;1.30;99.90
5962;DHT22;3007;50.770;0.250;2022-12-18T01:48:48;1.30;99.90
5962;DHT22;3007;50.770;0.250;2022-12-18T01:51:17;1.40;99.90
5962;DHT22;3007;50.770;0.250;2022-12-18T01:53:45;1.40;99.90
5962;DHT22;3007;50.770;0.250;2022-12-18T01:56:14;1.40;99.90
5962;DHT22;3007;50.770;0.250;2022-12-18T01:58:49;1.40;99.90
5962;DHT22;3007;50.770;0.250;2022-12-18T02:01:18;1.50;99.90
5962;DHT22;3007;50.770;0.250;2022-12-18T02:03:46;1.50;99.90
5962;DHT22;3007;50.770;0.250;2022-12-18T02:06:16;1.40;99.90
5962;DHT22;3007;50.770;0.250;2022-12-18T02:08:50;1.40;99.90
5962;DHT22;3007;50.770;0.250;2022-12-18T02:11:24;1.50;99.90
5962;DHT22;3007;50.770;0.250;2022-12-18T02:14:01;1.50;99.90
5962;DHT22;3007;50.770;0.250;2022-12-18T02:16:38;1.50;99.90
5962;DHT22;3007;50.770;0.250;2022-12-18T02:19:26;1.50;99.90
5962;DHT22;3007;50.770;0.250;2022-12-18T02:22:06;1.50;99.90
5962;DHT22;3007;50.770;0.250;2022-12-18T02:24:42;1.50;99.90
5962;DHT22;3007;50.770;0.250;2022-12-18T02:27:14;1.50;99.90
5962;DHT22;3007;50.770;0.250;2022-12-18T02:29:45;1.50;99.90
5962;DHT22;3007;50.770;0.250;2022-12-18T02:32:15;1.50;99.90
5962;DHT22;3007;50.770;0.250;2022-12-18T02:34:44;1.50;99.90
5962;DHT22;3007;50.770;0.250;2022-12-18T02:37:16;1.50;99.90
5962;DHT22;3007;50.770;0.250;2022-12-18T02:39:46;1.50;99.90
5962;DHT22;3007;50.770;0.250;2022-12-18T02:42:16;1.50;99.90
5962;DHT22;3007;50.770;0.250;2022-12-18T02:44:45;1.50;99.90
5962;DHT22;3007;50.770;0.250;2022-12-18T02:47:15;1.50;99.90
5962;DHT22;3007;50.770;0.250;2022-12-18T02:49:49;1.50;99.90
5962;DHT22;3007;50.770;0.250;2022-12-18T02:52:28;1.50;99.90
5962;DHT22;3007;50.770;0.250;2022-12-18T02:55:02;1.60;99.90
5962;DHT22;3007;50.770;0.250;2022-12-18T02:57:39;1.60;99.90
5962;DHT22;3007;50.770;0.250;2022-12-18T03:00:12;1.60;99.90
5962;DHT22;3007;50.770;0.250;2022-12-18T03:02:42;1.60;99.90
5962;DHT22;3007;50.770;0.250;2022-12-18T03:05:14;1.60;99.90
5962;DHT22;3007;50.770;0.250;2022-12-18T03:07:47;1.60;99.90
5962;DHT22;3007;50.770;0.250;2022-12-18T03:10:19;1.60;99.90
5962;DHT22;3007;50.770;0.250;2022-12-18T03:12:52;1.60;99.90
5962;DHT22;3007;50.770;0.250;2022-12-18T03:15:22;1.70;99.90
5962;DHT22;3007;50.770;0.250;2022-12-18T03:17:56;1.70;99.90
5962;DHT22;3007;50.770;0.250;2022-12-18T03:20:25;1.70;99.90
5962;DHT22;3007;50.770;0.250;2022-12-18T03:22:59;1.80;99.90
5962;DHT22;3007;50.770;0.250;2022-12-18T03:25:28;1.80;99.90
5962;DHT22;3007;50.770;0.250;2022-12-18T03:28:01;1.70;99.90
5962;DHT22;3007;50.770;0.250;2022-12-18T03:30:30;1.80;99.90
5962;DHT22;3007;50.770;0.250;2022-12-18T03:33:02;1.80;99.90
5962;DHT22;3007;50.770;0.250;2022-12-18T03:35:34;1.80;99.90
5962;DHT22;3007;50.770;0.250;2022-12-18T03:38:03;1.90;99.90
5962;DHT22;3007;50.770;0.250;2022-12-18T03:40:35;1.80;99.90
5962;DHT22;3007;50.770;0.250;2022-12-18T03:43:10;1.80;99.90
5962;DHT22;3007;50.770;0.250;2022-12-18T03:45:42;1.80;99.90
5962;DHT22;3007;50.770;0.250;2022-12-18T03:48:17;1.80;99.90
5962;DHT22;3007;50.770;0.250;2022-12-18T03:50:49;1.80;99.90
5962;DHT22;3007;50.770;0.250;2022-12-18T03:53:26;1.80;99.90
5962;DHT22;3007;50.770;0.250;2022-12-18T03:55:56;1.80;99.90
5962;DHT22;3007;50.770;0.250;2022-12-18T03:58:26;1.70;99.90
5962;DHT22;3007;50.770;0.250;2022-12-18T04:00:56;1.70;99.90
5962;DHT22;3007;50.770;0.250;2022-12-18T04:03:26;1.70;99.90
5962;DHT22;3007;50.770;0.250;2022-12-18T04:05:54;1.70;99.90
5962;DHT22;3007;50.770;0.250;2022-12-18T04:08:22;1.80;99.90
5962;DHT22;3007;50.770;0.250;2022-12-18T04:10:49;1.80;99.90
5962;DHT22;3007;50.770;0.250;2022-12-18T04:13:22;1.80;99.90
5962;DHT22;3007;50.770;0.250;2022-12-18T04:15:50;1.80;99.90
5962;DHT22;3007;50.770;0.250;2022-12-18T04:18:18;1.90;99.90
5962;DHT22;3007;50.770;0.250;2022-12-18T04:20:45;1.90;99.90
5962;DHT22;3007;50.770;0.250;2022-12-18T04:23:12;2.00;99.90
5962;DHT22;3007;50.770;0.250;2022-12-18T04:25:39;2.00;99.90
5962;DHT22;3007;50.770;0.250;2022-12-18T04:28:07;2.00;99.90
5962;DHT22;3007;50.770;0.250;2022-12-18T04:30:34;2.00;99.90
5962;DHT22;3007;50.770;0.250;2022-12-18T04:33:02;2.00;99.90
5962;DHT22;3007;50.770;0.250;2022-12-18T04:35:29;2.10;99.90
5962;DHT22;3007;50.770;0.250;2022-12-18T04:37:56;2.10;99.90
5962;DHT22;3007;50.770;0.250;2022-12-18T04:40:24;2.10;99.90
5962;DHT22;3007;50.770;0.250;2022-12-18T04:42:51;2.10;99.90
5962;DHT22;3007;50.770;0.250;2022-12-18T04:45:18;2.10;99.90
5962;DHT22;3007;50.770;0.250;2022-12-18T04:47:45;2.10;99.90
5962;DHT22;3007;50.770;0.250;2022-12-18T04:50:14;2.10;99.90
5962;DHT22;3007;50.770;0.250;2022-12-18T04:52:40;2.10;99.90
5962;DHT22;3007;50.770;0.250;2022-12-18T04:55:08;2.10;99.90
5962;DHT22;3007;50.770;0.250;2022-12-18T04:57:35;2.10;99.90
5962;DHT22;3007;50.770;0.250;2022-12-18T05:00:03;2.10;99.90
5962;DHT22;3007;50.770;0.250;2022-12-18T05:02:32;2.10;99.90
5962;DHT22;3007;50.770;0.250;2022-12-18T05:04:58;2.10;99.90
5962;DHT22;3007;50.770;0.250;2022-12-18T05:07:27;2.10;99.90
5962;DHT22;3007;50.770;0.250;2022-12-18T05:09:54;2.10;99.90
5962;DHT22;3007;50.770;0.250;2022-12-18T05:12:21;2.10;99.90
5962;DHT22;3007;50.770;0.250;2022-12-18T05:14:51;2.10;99.90
5962;DHT22;3007;50.770;0.250;2022-12-18T05:17:18;2.10;99.90
5962;DHT22;3007;50.770;0.250;2022-12-18T05:19:45;2.10;99.90
5962;DHT22;3007;50.770;0.250;2022-12-18T05:22:12;2.10;99.90
5962;DHT22;3007;50.770;0.250;2022-12-18T05:24:41;2.10;99.90
5962;DHT22;3007;50.770;0.250;2022-12-18T05:27:08;2.20;99.90
5962;DHT22;3007;50.770;0.250;2022-12-18T05:29:35;2.20;99.90
5962;DHT22;3007;50.770;0.250;2022-12-18T05:32:03;2.30;99.90
5962;DHT22;3007;50.770;0.250;2022-12-18T05:34:30;2.30;99.90
5962;DHT22;3007;50.770;0.250;2022-12-18T05:36:57;2.30;99.90
5962;DHT22;3007;50.770;0.250;2022-12-18T05:39:24;2.30;99.90
5962;DHT22;3007;50.770;0.250;2022-12-18T05:41:54;2.40;99.90
5962;DHT22;3007;50.770;0.250;2022-12-18T05:44:21;2.40;99.90
5962;DHT22;3007;50.770;0.250;2022-12-18T05:46:48;2.40;99.90
5962;DHT22;3007;50.770;0.250;2022-12-18T05:49:17;2.40;99.90
5962;DHT22;3007;50.770;0.250;2022-12-18T05:51:44;2.40;99.90
5962;DHT22;3007;50.770;0.250;2022-12-18T05:54:12;2.50;99.90
5962;DHT22;3007;50.770;0.250;2022-12-18T05:56:39;2.60;99.90
5962;DHT22;3007;50.770;0.250;2022-12-18T05:59:07;2.60;99.90
5962;DHT22;3007;50.770;0.250;2022-12-18T06:01:35;2.60;99.90
5962;DHT22;3007;50.770;0.250;2022-12-18T06:04:02;2.60;99.90
5962;DHT22;3007;50.770;0.250;2022-12-18T06:06:29;2.60;99.90
5962;DHT22;3007;50.770;0.250;2022-12-18T06:08:57;2.70;99.90
5962;DHT22;3007;50.770;0.250;2022-12-18T06:11:26;2.70;99.90
5962;DHT22;3007;50.770;0.250;2022-12-18T06:13:54;2.70;99.90
5962;DHT22;3007;50.770;0.250;2022-12-18T06:16:23;2.80;99.90
5962;DHT22;3007;50.770;0.250;2022-12-18T06:18:50;2.80;99.90
5962;DHT22;3007;50.770;0.250;2022-12-18T06:21:17;2.80;99.90
5962;DHT22;3007;50.770;0.250;2022-12-18T06:23:45;2.80;99.90
5962;DHT22;3007;50.770;0.250;2022-12-18T06:26:13;2.80;99.90
5962;DHT22;3007;50.770;0.250;2022-12-18T06:28:40;2.90;99.90
5962;DHT22;3007;50.770;0.250;2022-12-18T06:31:08;3.00;99.90
5962;DHT22;3007;50.770;0.250;2022-12-18T06:33:37;2.90;99.90
5962;DHT22;3007;50.770;0.250;2022-12-18T06:36:07;3.00;99.90
5962;DHT22;3007;50.770;0.250;2022-12-18T06:38:35;2.90;99.90
5962;DHT22;3007;50.770;0.250;2022-12-18T06:41:06;3.00;99.90
5962;DHT22;3007;50.770;0.250;2022-12-18T06:43:33;3.00;99.90
5962;DHT22;3007;50.770;0.250;2022-12-18T06:46:01;3.00;99.90
5962;DHT22;3007;50.770;0.250;2022-12-18T06:48:28;3.00;99.90
5962;DHT22;3007;50.770;0.250;2022-12-18T06:50:57;3.00;99.90
5962;DHT22;3007;50.770;0.250;2022-12-18T06:53:24;3.00;99.90
5962;DHT22;3007;50.770;0.250;2022-12-18T06:55:51;3.00;99.90
5962;DHT22;3007;50.770;0.250;2022-12-18T06:58:18;3.10;99.90
5962;DHT22;3007;50.770;0.250;2022-12-18T07:00:45;3.10;99.90
5962;DHT22;3007;50.770;0.250;2022-12-18T07:03:13;3.10;99.90
5962;DHT22;3007;50.770;0.250;2022-12-18T07:05:40;3.10;99.90
5962;DHT22;3007;50.770;0.250;2022-12-18T07:08:09;3.10;99.90
5962;DHT22;3007;50.770;0.250;2022-12-18T07:10:41;3.10;99.90
5962;DHT22;3007;50.770;0.250;2022-12-18T07:13:08;3.10;99.90
5962;DHT22;3007;50.770;0.250;2022-12-18T07:15:35;3.10;99.90
5962;DHT22;3007;50.770;0.250;2022-12-18T07:18:02;3.10;99.90
5962;DHT22;3007;50.770;0.250;2022-12-18T07:20:30;3.10;99.90
5962;DHT22;3007;50.770;0.250;2022-12-18T07:22:57;3.10;99.90
5962;DHT22;3007;50.770;0.250;2022-12-18T07:25:25;3.10;99.90
5962;DHT22;3007;50.770;0.250;2022-12-18T07:27:52;3.10;99.90
5962;DHT22;3007;50.770;0.250;2022-12-18T07:30:19;3.10;99.90
5962;DHT22;3007;50.770;0.250;2022-12-18T07:32:47;3.10;99.90
5962;DHT22;3007;50.770;0.250;2022-12-18T07:35:14;3.10;99.90
5962;DHT22;3007;50.770;0.250;2022-12-18T07:37:41;3.10;99.90
5962;DHT22;3007;50.770;0.250;2022-12-18T07:40:09;3.10;99.90
5962;DHT22;3007;50.770;0.250;2022-12-18T07:42:38;3.20;99.90
5962;DHT22;3007;50.770;0.250;2022-12-18T07:45:06;3.20;99.90
5962;DHT22;3007;50.770;0.250;2022-12-18T07:47:34;3.20;99.90
5962;DHT22;3007;50.770;0.250;2022-12-18T07:50:02;3.10;99.90
5962;DHT22;3007;50.770;0.250;2022-12-18T07:52:29;3.20;99.90
5962;DHT22;3007;50.770;0.250;2022-12-18T07:54:56;3.20;99.90
5962;DHT22;3007;50.770;0.250;2022-12-18T07:57:24;3.20;99.90
5962;DHT22;3007;50.770;0.250;2022-12-18T07:59:52;3.20;99.90
5962;DHT22;3007;50.770;0.250;2022-12-18T08:02:19;3.10;99.90
5962;DHT22;3007;50.770;0.250;2022-12-18T08:04:46;3.20;99.90
5962;DHT22;3007;50.770;0.250;2022-12-18T08:07:13;3.10;99.90
5962;DHT22;3007;50.770;0.250;2022-12-18T08:09:41;3.10;99.90
5962;DHT22;3007;50.770;0.250;2022-12-18T08:12:08;3.20;99.90
5962;DHT22;3007;50.770;0.250;2022-12-18T08:14:35;3.20;99.90
5962;DHT22;3007;50.770;0.250;2022-12-18T08:17:03;3.10;99.90
5962;DHT22;3007;50.770;0.250;2022-12-18T08:19:30;3.10;99.90
5962;DHT22;3007;50.770;0.250;2022-12-18T08:21:58;3.10;99.90
5962;DHT22;3007;50.770;0.250;2022-12-18T08:24:25;3.10;99.90
5962;DHT22;3007;50.770;0.250;2022-12-18T08:26:52;3.10;99.90
5962;DHT22;3007;50.770;0.250;2022-12-18T08:29:19;3.10;99.90
5962;DHT22;3007;50.770;0.250;2022-12-18T08:31:46;3.10;99.90
5962;DHT22;3007;50.770;0.250;2022-12-18T08:34:15;3.10;99.90
5962;DHT22;3007;50.770;0.250;2022-12-18T08:36:42;3.10;99.90
5962;DHT22;3007;50.770;0.250;2022-12-18T08:39:09;3.20;99.90
5962;DHT22;3007;50.770;0.250;2022-12-18T08:41:36;3.10;99.90
5962;DHT22;3007;50.770;0.250;2022-12-18T08:44:03;3.10;99.90
5962;DHT22;3007;50.770;0.250;2022-12-18T08:46:48;3.10;99.90
5962;DHT22;3007;50.770;0.250;2022-12-18T08:49:16;3.10;99.90
5962;DHT22;3007;50.770;0.250;2022-12-18T08:51:43;3.20;99.90
5962;DHT22;3007;50.770;0.250;2022-12-18T08:54:12;3.20;99.90
5962;DHT22;3007;50.770;0.250;2022-12-18T08:56:39;3.30;99.90
5962;DHT22;3007;50.770;0.250;2022-12-18T08:59:06;3.30;99.90
5962;DHT22;3007;50.770;0.250;2022-12-18T09:01:33;3.30;99.90
5962;DHT22;3007;50.770;0.250;2022-12-18T09:04:00;3.30;99.90
5962;DHT22;3007;50.770;0.250;2022-12-18T09:06:29;3.30;99.90
5962;DHT22;3007;50.770;0.250;2022-12-18T09:08:57;3.40;99.90
5962;DHT22;3007;50.770;0.250;2022-12-18T09:11:26;3.40;99.90
5962;DHT22;3007;50.770;0.250;2022-12-18T09:13:54;3.40;99.90
5962;DHT22;3007;50.770;0.250;2022-12-18T09:16:21;3.40;99.90
5962;DHT22;3007;50.770;0.250;2022-12-18T09:18:49;3.40;99.90
5962;DHT22;3007;50.770;0.250;2022-12-18T09:21:18;3.40;99.90
5962;DHT22;3007;50.770;0.250;2022-12-18T09:23:51;3.40;99.90
5962;DHT22;3007;50.770;0.250;2022-12-18T09:26:18;3.40;99.90
5962;DHT22;3007;50.770;0.250;2022-12-18T09:28:45;3.40;99.90
5962;DHT22;3007;50.770;0.250;2022-12-18T09:31:13;3.40;99.90
5962;DHT22;3007;50.770;0.250;2022-12-18T09:33:43;3.40;99.90
5962;DHT22;3007;50.770;0.250;2022-12-18T09:36:12;3.50;99.90
5962;DHT22;3007;50.770;0.250;2022-12-18T09:38:40;3.50;99.90
5962;DHT22;3007;50.770;0.250;2022-12-18T09:41:22;3.60;99.90
5962;DHT22;3007;50.770;0.250;2022-12-18T09:43:53;3.60;99.90
5962;DHT22;3007;50.770;0.250;2022-12-18T09:46:26;3.50;99.90
5962;DHT22;3007;50.770;0.250;2022-12-18T09:48:56;3.60;99.90
5962;DHT22;3007;50.770;0.250;2022-12-18T09:51:27;3.60;99.90
5962;DHT22;3007;50.770;0.250;2022-12-18T09:53:59;3.60;99.90
5962;DHT22;3007;50.770;0.250;2022-12-18T09:56:31;3.60;99.90
5962;DHT22;3007;50.770;0.250;2022-12-18T09:58:59;3.70;99.90
5962;DHT22;3007;50.770;0.250;2022-12-18T10:01:29;3.70;99.90
5962;DHT22;3007;50.770;0.250;2022-12-18T10:03:56;3.70;99.90
5962;DHT22;3007;50.770;0.250;2022-12-18T10:06:26;3.80;99.90
5962;DHT22;3007;50.770;0.250;2022-12-18T10:08:59;3.80;99.90
5962;DHT22;3007;50.770;0.250;2022-12-18T10:11:37;3.80;99.90
5962;DHT22;3007;50.770;0.250;2022-12-18T10:14:11;3.90;99.90
5962;DHT22;3007;50.770;0.250;2022-12-18T10:16:47;3.90;99.90
5962;DHT22;3007;50.770;0.250;2022-12-18T10:19:36;3.90;99.90
5962;DHT22;3007;50.770;0.250;2022-12-18T10:22:14;3.90;99.90
5962;DHT22;3007;50.770;0.250;2022-12-18T10:24:54;3.90;99.90
5962;DHT22;3007;50.770;0.250;2022-12-18T10:27:25;4.00;99.90
5962;DHT22;3007;50.770;0.250;2022-12-18T10:29:53;4.00;99.90
5962;DHT22;3007;50.770;0.250;2022-12-18T10:32:22;4.00;99.90
5962;DHT22;3007;50.770;0.250;2022-12-18T10:34:55;4.00;99.90
5962;DHT22;3007;50.770;0.250;2022-12-18T10:37:25;4.00;99.90
5962;DHT22;3007;50.770;0.250;2022-12-18T10:40:08;4.00;99.90
5962;DHT22;3007;50.770;0.250;2022-12-18T10:42:37;4.00;99.90
5962;DHT22;3007;50.770;0.250;2022-12-18T10:45:10;4.00;99.90
5962;DHT22;3007;50.770;0.250;2022-12-18T10:47:42;4.00;99.90
5962;DHT22;3007;50.770;0.250;2022-12-18T10:50:19;4.10;99.90
5962;DHT22;3007;50.770;0.250;2022-12-18T10:52:54;4.00;99.90
5962;DHT22;3007;50.770;0.250;2022-12-18T10:55:21;4.00;99.90
5962;DHT22;3007;50.770;0.250;2022-12-18T10:57:51;4.10;99.90
5962;DHT22;3007;50.770;0.250;2022-12-18T11:00:25;4.00;99.90
5962;DHT22;3007;50.770;0.250;2022-12-18T11:02:54;4.10;99.90
5962;DHT22;3007;50.770;0.250;2022-12-18T11:05:29;4.10;99.90
5962;DHT22;3007;50.770;0.250;2022-12-18T11:07:57;4.10;99.90
5962;DHT22;3007;50.770;0.250;2022-12-18T11:10:29;4.00;99.90
5962;DHT22;3007;50.770;0.250;2022-12-18T11:13:10;4.10;99.90
5962;DHT22;3007;50.770;0.250;2022-12-18T11:15:40;4.10;99.90
5962;DHT22;3007;50.770;0.250;2022-12-18T11:18:17;4.10;99.90
5962;DHT22;3007;50.770;0.250;2022-12-18T11:20:50;4.10;99.90
5962;DHT22;3007;50.770;0.250;2022-12-18T11:23:19;4.10;99.90
5962;DHT22;3007;50.770;0.250;2022-12-18T11:25:55;4.10;99.90
5962;DHT22;3007;50.770;0.250;2022-12-18T11:28:28;4.10;99.90
5962;DHT22;3007;50.770;0.250;2022-12-18T11:31:21;4.10;99.90
5962;DHT22;3007;50.770;0.250;2022-12-18T11:34:00;4.10;99.90
5962;DHT22;3007;50.770;0.250;2022-12-18T11:36:32;4.10;99.90
5962;DHT22;3007;50.770;0.250;2022-12-18T11:39:03;4.10;99.90
5962;DHT22;3007;50.770;0.250;2022-12-18T11:41:37;4.10;99.90
5962;DHT22;3007;50.770;0.250;2022-12-18T11:44:35;4.20;99.90
5962;DHT22;3007;50.770;0.250;2022-12-18T11:47:08;4.20;99.90
5962;DHT22;3007;50.770;0.250;2022-12-18T11:49:37;4.20;99.90
5962;DHT22;3007;50.770;0.250;2022-12-18T11:52:09;4.20;99.90
5962;DHT22;3007;50.770;0.250;2022-12-18T11:54:41;4.20;99.90
5962;DHT22;3007;50.770;0.250;2022-12-18T11:57:13;4.20;99.90
5962;DHT22;3007;50.770;0.250;2022-12-18T11:59:49;4.20;99.90
5962;DHT22;3007;50.770;0.250;2022-12-18T12:02:38;4.30;99.90
5962;DHT22;3007;50.770;0.250;2022-12-18T12:05:33;4.20;99.90
5962;DHT22;3007;50.770;0.250;2022-12-18T12:08:08;4.20;99.90
5962;DHT22;3007;50.770;0.250;2022-12-18T12:10:49;4.20;99.90
5962;DHT22;3007;50.770;0.250;2022-12-18T12:13:28;4.30;99.90
5962;DHT22;3007;50.770;0.250;2022-12-18T12:16:06;4.20;99.90
5962;DHT22;3007;50.770;0.250;2022-12-18T12:21:35;4.20;99.90
5962;DHT22;3007;50.770;0.250;2022-12-18T12:24:17;4.30;99.90
5962;DHT22;3007;50.770;0.250;2022-12-18T12:26:58;4.30;99.90
5962;DHT22;3007;50.770;0.250;2022-12-18T12:29:39;4.30;99.90
5962;DHT22;3007;50.770;0.250;2022-12-18T12:32:22;4.30;99.90
5962;DHT22;3007;50.770;0.250;2022-12-18T12:34:59;4.30;99.90
5962;DHT22;3007;50.770;0.250;2022-12-18T12:37:39;4.30;99.90
5962;DHT22;3007;50.770;0.250;2022-12-18T12:40:12;4.30;99.90
5962;DHT22;3007;50.770;0.250;2022-12-18T12:42:44;4.30;99.90
5962;DHT22;3007;50.770;0.250;2022-12-18T12:45:34;4.30;99.90
5962;DHT22;3007;50.770;0.250;2022-12-18T12:48:06;4.30;99.90
5962;DHT22;3007;50.770;0.250;2022-12-18T12:50:38;4.40;99.90
5962;DHT22;3007;50.770;0.250;2022-12-18T12:53:08;4.40;99.90
5962;DHT22;3007;50.770;0.250;2022-12-18T12:55:36;4.30;99.90
5962;DHT22;3007;50.770;0.250;2022-12-18T12:58:10;4.40;99.90
5962;DHT22;3007;50.770;0.250;2022-12-18T13:00:44;4.50;99.90
5962;DHT22;3007;50.770;0.250;2022-12-18T13:03:43;4.50;99.90
5962;DHT22;3007;50.770;0.250;2022-12-18T13:06:18;4.50;99.90
5962;DHT22;3007;50.770;0.250;2022-12-18T13:08:55;4.50;99.90
5962;DHT22;3007;50.770;0.250;2022-12-18T13:11:32;4.50;99.90
5962;DHT22;3007;50.770;0.250;2022-12-18T13:14:27;4.50;99.90
5962;DHT22;3007;50.770;0.250;2022-12-18T13:17:24;4.60;99.90
5962;DHT22;3007;50.770;0.250;2022-12-18T13:20:09;4.60;99.90
5962;DHT22;3007;50.770;0.250;2022-12-18T13:22:38;4.60;99.90
5962;DHT22;3007;50.770;0.250;2022-12-18T13:25:32;4.60;99.90
5962;DHT22;3007;50.770;0.250;2022-12-18T13:28:11;4.60;99.90
5962;DHT22;3007;50.770;0.250;2022-12-18T13:30:48;4.70;99.90
5962;DHT22;3007;50.770;0.250;2022-12-18T13:33:39;4.70;99.90
5962;DHT22;3007;50.770;0.250;2022-12-18T13:36:16;4.70;99.90
5962;DHT22;3007;50.770;0.250;2022-12-18T13:39:09;4.80;99.90
5962;DHT22;3007;50.770;0.250;2022-12-18T13:41:37;4.80;99.90
5962;DHT22;3007;50.770;0.250;2022-12-18T13:44:11;4.90;99.90
5962;DHT22;3007;50.770;0.250;2022-12-18T13:46:43;4.90;99.90
5962;DHT22;3007;50.770;0.250;2022-12-18T13:49:21;4.90;99.90
5962;DHT22;3007;50.770;0.250;2022-12-18T13:51:52;5.00;99.90
5962;DHT22;3007;50.770;0.250;2022-12-18T13:54:22;5.00;99.90
5962;DHT22;3007;50.770;0.250;2022-12-18T13:56:51;5.00;99.90
5962;DHT22;3007;50.770;0.250;2022-12-18T13:59:20;5.00;99.90
5962;DHT22;3007;50.770;0.250;2022-12-18T14:01:50;5.00;99.90
5962;DHT22;3007;50.770;0.250;2022-12-18T14:04:21;5.00;99.90
5962;DHT22;3007;50.770;0.250;2022-12-18T14:06:52;5.10;99.90
5962;DHT22;3007;50.770;0.250;2022-12-18T14:09:23;5.10;99.90
5962;DHT22;3007;50.770;0.250;2022-12-18T14:11:52;5.20;99.90
5962;DHT22;3007;50.770;0.250;2022-12-18T14:14:42;5.20;99.90
5962;DHT22;3007;50.770;0.250;2022-12-18T14:17:10;5.20;99.90
5962;DHT22;3007;50.770;0.250;2022-12-18T14:19:42;5.30;99.90
5962;DHT22;3007;50.770;0.250;2022-12-18T14:22:15;5.30;99.90
5962;DHT22;3007;50.770;0.250;2022-12-18T14:24:43;5.30;99.90
5962;DHT22;3007;50.770;0.250;2022-12-18T14:27:21;5.30;99.90
5962;DHT22;3007;50.770;0.250;2022-12-18T14:29:49;5.30;99.90
5962;DHT22;3007;50.770;0.250;2022-12-18T14:32:17;5.40;99.90
5962;DHT22;3007;50.770;0.250;2022-12-18T14:34:46;5.40;99.90
5962;DHT22;3007;50.770;0.250;2022-12-18T14:37:18;5.40;99.90
5962;DHT22;3007;50.770;0.250;2022-12-18T14:39:53;5.50;99.90
5962;DHT22;3007;50.770;0.250;2022-12-18T14:42:21;5.50;99.90
5962;DHT22;3007;50.770;0.250;2022-12-18T14:44:48;5.50;99.90
5962;DHT22;3007;50.770;0.250;2022-12-18T14:47:15;5.50;99.90
5962;DHT22;3007;50.770;0.250;2022-12-18T14:49:42;5.60;99.90
5962;DHT22;3007;50.770;0.250;2022-12-18T14:52:21;5.60;99.90
5962;DHT22;3007;50.770;0.250;2022-12-18T14:54:49;5.60;99.90
5962;DHT22;3007;50.770;0.250;2022-12-18T14:57:21;5.60;99.90
5962;DHT22;3007;50.770;0.250;2022-12-18T14:59:49;5.70;99.90
5962;DHT22;3007;50.770;0.250;2022-12-18T15:02:20;5.70;99.90
5962;DHT22;3007;50.770;0.250;2022-12-18T15:05:00;5.70;99.90
5962;DHT22;3007;50.770;0.250;2022-12-18T15:07:40;5.70;99.90
5962;DHT22;3007;50.770;0.250;2022-12-18T15:10:13;5.80;99.90
5962;DHT22;3007;50.770;0.250;2022-12-18T15:12:42;5.80;99.90
5962;DHT22;3007;50.770;0.250;2022-12-18T15:15:47;5.80;99.90
5962;DHT22;3007;50.770;0.250;2022-12-18T15:18:15;5.90;99.90
5962;DHT22;3007;50.770;0.250;2022-12-18T15:20:45;5.90;99.90
5962;DHT22;3007;50.770;0.250;2022-12-18T15:23:19;5.90;99.90
5962;DHT22;3007;50.770;0.250;2022-12-18T15:25:49;5.90;99.90
5962;DHT22;3007;50.770;0.250;2022-12-18T15:28:25;5.90;99.90
5962;DHT22;3007;50.770;0.250;2022-12-18T15:31:21;5.90;99.90
5962;DHT22;3007;50.770;0.250;2022-12-18T15:34:02;5.90;99.90
5962;DHT22;3007;50.770;0.250;2022-12-18T15:36:32;6.00;99.90
5962;DHT22;3007;50.770;0.250;2022-12-18T15:39:04;6.00;99.90
5962;DHT22;3007;50.770;0.250;2022-12-18T15:41:32;6.00;99.90
5962;DHT22;3007;50.770;0.250;2022-12-18T15:44:00;6.10;99.90
5962;DHT22;3007;50.770;0.250;2022-12-18T15:46:26;6.10;99.90
5962;DHT22;3007;50.770;0.250;2022-12-18T15:48:54;6.10;99.90
5962;DHT22;3007;50.770;0.250;2022-12-18T15:51:24;6.10;99.90
5962;DHT22;3007;50.770;0.250;2022-12-18T15:53:55;6.10;99.90
5962;DHT22;3007;50.770;0.250;2022-12-18T15:56:24;6.10;99.90
5962;DHT22;3007;50.770;0.250;2022-12-18T15:59:11;6.10;99.90
5962;DHT22;3007;50.770;0.250;2022-12-18T16:01:39;6.20;99.90
5962;DHT22;3007;50.770;0.250;2022-12-18T16:04:06;6.20;99.90
5962;DHT22;3007;50.770;0.250;2022-12-18T16:06:35;6.20;99.90
5962;DHT22;3007;50.770;0.250;2022-12-18T16:09:02;6.20;99.90
5962;DHT22;3007;50.770;0.250;2022-12-18T16:11:34;6.20;99.90
5962;DHT22;3007;50.770;0.250;2022-12-18T16:14:16;6.30;99.90
5962;DHT22;3007;50.770;0.250;2022-12-18T16:16:44;6.30;99.90
5962;DHT22;3007;50.770;0.250;2022-12-18T16:19:11;6.30;99.90
5962;DHT22;3007;50.770;0.250;2022-12-18T16:21:39;6.30;99.90
5962;DHT22;3007;50.770;0.250;2022-12-18T16:24:08;6.30;99.90
5962;DHT22;3007;50.770;0.250;2022-12-18T16:26:38;6.30;99.90
5962;DHT22;3007;50.770;0.250;2022-12-18T16:29:05;6.30;99.90
5962;DHT22;3007;50.770;0.250;2022-12-18T16:31:32;6.30;99.90
5962;DHT22;3007;50.770;0.250;2022-12-18T16:34:19;6.30;99.90
5962;DHT22;3007;50.770;0.250;2022-12-18T16:36:47;6.40;99.90
5962;DHT22;3007;50.770;0.250;2022-12-18T16:39:15;6.40;99.90
5962;DHT22;3007;50.770;0.250;2022-12-18T16:41:44;6.40;99.90
5962;DHT22;3007;50.770;0.250;2022-12-18T16:44:11;6.40;99.90
5962;DHT22;3007;50.770;0.250;2022-12-18T16:46:38;6.40;99.90